Tiempo atmosférico en la estación meteorológica de Cieza, Murcia (265 m.)

Fecha
DESCASC
Temp. máxima en grados centígrados (hora)
DESCASC
Temp. mínima en grados centígrados (hora)
DESCASC
Temp. media en grados centígrados
DESCASC
Racha de viento máxima en m/sg (hora)
DESCASC
Velocidad máxima media en intervalos de 10 minutos(hora)
DESCASC
Precipitaciones diarias en mm
DESCASC
Precipitaciones de 00:00 a 06:00 en mm
DESCASC
Precipitaciones de 06:00 a 12:00 en mm
DESCASC
Precipitaciones de 12:00 a 18:00 en mm
DESCASC
Precipitaciones de 18:00 a 24:00 en mm
DESCASC
17-09-2017 27.4 (17:00) 14.5 (04:00) 20.9 10.28 (19:40) 5.83 (18:00) 0 0 0 0 0
16-09-2017 24.2 (15:10) 14.5 (06:30) 19.4 11.67 (18:20) 7.22 (18:20) 0.3 0.3 0 0 0
15-09-2017 29.6 (15:10) 17.5 (23:59) 23.6 14.17 (18:50) 8.33 (18:50) 2.4 0 0 0 2.4
14-09-2017 36.1 (17:10) 15.2 (00:00) 25.6 6.94 (17:30) 3.89 (18:20) 0 0 0 0 0
13-09-2017 30.2 (16:20) 15.8 (00:00) 23 12.22 (16:30) 6.94 (19:10) 0 0 0 0 0
12-09-2017 33 (15:30) 15.6 (00:00) 24.3 12.22 (18:10) 7.78 (17:40) 0 0 0 0 0
11-09-2017 33.5 (16:10) 15.1 (00:00) 24.3 7.5 (17:30) 5 (18:10) 0 0 0 0 0
10-09-2017 27.2 (17:50) 16 (00:00) 21.6 13.89 (15:20) 5 (18:30) 0 0 0 0 0
09-09-2017 30.1 (18:30) 18.5 (00:00) 24.3 9.17 (19:40) 5.28 (20:00) 0 0 0 0 0
08-09-2017 29.9 (17:00) 19.6 (00:00) 24.8 10.83 (19:10) 6.39 (19:10) 0 0 0 0 0
07-09-2017 28.9 (16:00) 19.7 (00:00) 24.3 10 (17:40) 5.56 (18:50) 0.2 0 0.1 0.1 0
06-09-2017 31.6 (15:10) 17.6 (00:00) 24.6 11.11 (19:00) 6.94 (17:00) 0 0 0 0 0
05-09-2017 31 (16:50) 20.8 (00:00) 25.9 10 (17:40) 6.11 (18:30) 0 0 0 0 0
04-09-2017 34.1 (14:30) 18.7 (00:00) 26.4 11.67 (19:40) 6.67 (19:50) 0 0 0 0 0
03-09-2017 -- (--) -- (--) -- 8.06 (15:30) 4.44 (21:00) 0 0 0 0 0
02-09-2017 -- (--) -- (--) -- 9.44 (19:50) 5.56 (19:10) 4.1 0.1 4 0 0
01-09-2017 -- (--) -- (--) -- 16.39 (20:00) 6.67 (15:40) 0 0 0 0 0
31-08-2017 29.7 (15:40) 18.7 (00:00) 24.2 9.44 (17:30) 5.83 (17:20) 0 0 0 0 0
30-08-2017 23.6 (18:10) 17.7 (00:00) 20.7 11.67 (00:10) 6.67 (00:10) 11.8 1.8 5.6 4.4 0
29-08-2017 23.8 (00:10) 18.2 (00:00) 21 10.83 (23:50) 6.39 (23:30) 32.2 2.9 1 16.7 11.6
28-08-2017 28.6 (17:30) 21.2 (00:00) 24.9 11.39 (15:00) 6.11 (15:10) 0 0 0 0 0
27-08-2017 31.2 (16:30) 21 (00:00) 26.1 8.33 (02:10) 5 (02:10) 0.1 0 0 0 0.1
26-08-2017 33 (15:40) 22 (00:00) 27.5 13.06 (17:00) 7.5 (17:20) 0 0 0 0 0
25-08-2017 33.3 (15:40) 17.1 (00:00) 25.2 11.67 (17:20) 6.67 (19:10) 0 0 0 0 0
24-08-2017 32.8 (15:20) 16.8 (00:00) 24.8 11.67 (16:00) 6.67 (18:00) 0 0 0 0 0
23-08-2017 33.7 (15:10) 16.8 (00:00) 25.3 11.39 (17:30) 6.67 (16:10) 0 0 0 0 0
22-08-2017 33.7 (16:10) 17.1 (00:00) 25.4 11.11 (18:20) 6.39 (20:00) 0 0 0 0 0

Gráficas

Temp. máximas Temp. mínimas Temp. medias Precipitaciones Rachas de viento máximas Velocidades máximas media en intervalos de 10 minutos

Datos horarios

Fecha y hora oficial Temperatura (ºC) Velocidad del viento (km/h) Dirección del viento Racha (km/h) Dirección de racha Precipitación (mm) Presión (hPa) Tendencia (hPa) Humedad (%)
2017-09-20 23:00:00 20.1 12 Sudeste 23 Sudeste 0 -- -- 73
2017-09-20 22:00:00 20.9 16 Sudeste 26 Sudeste 0 -- -- 68
2017-09-20 21:00:00 21.8 15 Sudeste 34 Sudeste 0 -- -- 65
2017-09-20 20:00:00 23.3 19 Sudeste 39 Sudeste 0 -- -- 59
2017-09-20 19:00:00 26.1 16 Sudeste 36 Este 0 -- -- 44
2017-09-20 18:00:00 26.9 17 Sudeste 30 Sudeste 0 -- -- 42
2017-09-20 17:00:00 27.2 15 Sudeste 29 Sudeste 0 -- -- 41
2017-09-20 16:00:00 27 14 Sudeste 28 Sudeste 0 -- -- 42
2017-09-20 15:00:00 26.7 13 Este 31 Sudeste 0 -- -- 44
2017-09-20 14:00:00 25.3 13 Sudeste 31 Este 0 -- -- 45
2017-09-20 13:00:00 24.7 9 Este 20 Este 0 -- -- 51
2017-09-20 12:00:00 22.4 0 Calma 11 Oeste 0 -- -- 62
2017-09-20 11:00:00 18.9 7 Oeste 13 Oeste 0 -- -- 72
2017-09-20 10:00:00 16.8 7 Oeste 14 Oeste 0 -- -- 80
2017-09-20 09:00:00 15.1 8 Oeste 11 Oeste 0 -- -- 89
2017-09-20 08:00:00 15 5 Oeste 8 Oeste 0 -- -- 90
2017-09-20 07:00:00 14.5 6 Oeste 8 Oeste 0 -- -- 91
2017-09-20 06:00:00 15.1 0 Calma 10 Noroeste 0 -- -- 89
2017-09-20 05:00:00 15.8 5 Oeste 9 Oeste 0 -- -- 89
2017-09-20 04:00:00 17 0 Calma 12 Norte 0 -- -- 86
2017-09-20 03:00:00 17.6 2 Este 8 Este 0 -- -- 86
2017-09-20 02:00:00 18.1 2 Este 10 Este 0 -- -- 83
2017-09-20 01:00:00 18.3 3 Este 9 Este 0 -- -- 83
2017-09-20 00:00:00 18.8 3 Este 14 Sudeste 0 -- -- 80
2017-09-19 23:00:00 20.7 10 Sudeste 20 Sudeste 0 -- -- 74
2017-09-19 22:00:00 21 9 Sudeste 22 Sudeste 0 -- -- 71
2017-09-19 21:00:00 21.9 14 Sudeste 31 Sudeste 0 -- -- 65
2017-09-19 20:00:00 -- -- -- -- -- -- -- -- --
2017-09-19 19:00:00 28.4 10 Sudeste 17 Sudeste 0 -- -- 23
2017-09-19 18:00:00 29.8 2 Sudeste 13 Sudoeste 0 -- -- 23
2017-09-19 17:00:00 29.6 0 Calma 17 Norte 0 -- -- 24
2017-09-19 16:00:00 28.9 4 Oeste 19 Oeste 0 -- -- 26
2017-09-19 15:00:00 27.6 6 Oeste 20 Oeste 0 -- -- 29
2017-09-19 14:00:00 27.1 4 Oeste 22 Norte 0 -- -- 31
2017-09-19 13:00:00 25.3 6 Oeste 15 Oeste 0 -- -- 33
2017-09-19 12:00:00 23.1 7 Oeste 17 Oeste 0 -- -- 38
2017-09-19 11:00:00 20.3 11 Oeste 18 Noroeste 0 -- -- 42
2017-09-19 10:00:00 17.6 8 Oeste 15 Oeste 0 -- -- 53
2017-09-19 09:00:00 15.7 8 Oeste 15 Oeste 0 -- -- 64
2017-09-19 08:00:00 14.8 9 Oeste 16 Oeste 0 -- -- 64
2017-09-19 07:00:00 14.7 8 Oeste 13 Oeste 0 -- -- 74
2017-09-19 06:00:00 15.7 6 Oeste 11 Oeste 0 -- -- 61
2017-09-19 05:00:00 17.1 3 Noroeste 11 Norte 0 -- -- 56
2017-09-19 04:00:00 16.7 0 Calma 10 Oeste 0 -- -- 46
2017-09-19 03:00:00 18.2 4 Oeste 10 Oeste 0 -- -- 40
2017-09-19 02:00:00 19.4 7 Oeste 12 Oeste 0 -- -- 37
2017-09-19 01:00:00 19.9 6 Oeste 14 Oeste 0 -- -- 34
2017-09-19 00:00:00 20.9 7 Oeste 11 Oeste 0 -- -- 31
2017-09-18 23:00:00 21.9 7 Oeste 14 Norte 0 -- -- 27
2017-09-18 22:00:00 24.8 8 Norte 19 Norte 0 -- -- 23
2017-09-18 21:00:00 26 14 Norte 33 Norte 0 -- -- 21
2017-09-18 20:00:00 27.2 8 Norte 20 Oeste 0 -- -- 20
2017-09-18 19:00:00 29.2 17 Oeste 29 Noroeste 0 -- -- 18
2017-09-18 18:00:00 30.2 8 Noroeste 30 Noroeste 0 -- -- 17
2017-09-18 17:00:00 30.6 9 Noroeste 32 Oeste 0 -- -- 16
2017-09-18 16:00:00 30.5 9 Noroeste 32 Oeste 0 -- -- 16
2017-09-18 15:00:00 30.3 9 Oeste 25 Oeste 0 -- -- 17
2017-09-18 14:00:00 28.2 9 Oeste 23 Oeste 0 -- -- 21
2017-09-18 13:00:00 26.9 7 Oeste 18 Oeste 0 -- -- 28
2017-09-18 12:00:00 23.7 8 Oeste 18 Oeste 0 -- -- 39
2017-09-18 11:00:00 20.9 10 Oeste 20 Noroeste 0 -- -- 48
2017-09-18 10:00:00 17.1 9 Oeste 15 Oeste 0 -- -- 79
2017-09-18 09:00:00 14.9 8 Oeste 13 Oeste 0 -- -- 89
2017-09-18 08:00:00 14.6 9 Oeste 15 Oeste 0 -- -- 92
2017-09-18 07:00:00 15.2 10 Oeste 14 Oeste 0 -- -- 92
2017-09-18 06:00:00 15.9 8 Oeste 12 Oeste 0 -- -- 92
2017-09-18 05:00:00 16.8 0 Calma 10 Oeste 0 -- -- 91
2017-09-18 04:00:00 16.4 0 Calma -- -- 0 -- -- 89
2017-09-18 03:00:00 18.3 0 Calma 5 Sudeste 0 -- -- 87
2017-09-18 02:00:00 19.5 0 Calma 8 Sudeste 0 -- -- 83
2017-09-18 01:00:00 20.4 7 Sudeste 19 Sudeste 0 -- -- 80
2017-09-18 00:00:00 20.6 9 Sudeste 19 Este 0 -- -- 79
2017-09-17 23:00:00 21 12 Sudeste 26 Sudeste 0 -- -- 76
2017-09-17 22:00:00 21.8 15 Sudeste 27 Sudeste 0 -- -- 64
2017-09-17 21:00:00 22.8 14 Sudeste 33 Sudeste 0 -- -- 55
2017-09-17 20:00:00 23.9 20 Sudeste 37 Sudeste 0 -- -- 53
2017-09-17 19:00:00 25.2 21 Sudeste 37 Sudeste 0 -- -- 47
2017-09-17 18:00:00 26.1 21 Sudeste 31 Sudeste 0 -- -- 40
2017-09-17 17:00:00 26.8 13 Sudeste 27 Este 0 -- -- 35
2017-09-17 16:00:00 26.5 11 Sudeste 23 Sudeste 0 -- -- 37
2017-09-17 15:00:00 26.5 9 Este 29 Sudeste 0 -- -- 38
2017-09-17 14:00:00 25.1 9 Este 22 Sudeste 0 -- -- 44
2017-09-17 13:00:00 23.4 8 Este 22 Este 0 -- -- 52
2017-09-17 12:00:00 22.2 6 Este 16 Sudeste 0 -- -- 60
2017-09-17 11:00:00 19.1 5 Oeste 13 Oeste 0 -- -- 72
2017-09-17 10:00:00 17.3 8 Oeste 14 Oeste 0 -- -- 79
2017-09-17 09:00:00 16.1 8 Oeste 10 Oeste 0 -- -- 88
2017-09-17 08:00:00 -- 0 Calma 6 Oeste 0 -- -- --
2017-09-17 07:00:00 15.6 5 Oeste 9 Oeste 0 -- -- 89
2017-09-17 06:00:00 15.1 5 Oeste 9 Noroeste 0 -- -- 91
2017-09-17 05:00:00 14.8 0 Calma 7 Norte 0 -- -- 91
2017-09-17 04:00:00 14.5 0 Calma 8 Nordeste 0 -- -- 90
2017-09-17 03:00:00 15 0 Calma 6 Sudeste 0 -- -- 89
2017-09-17 02:00:00 15.7 2 Sudeste 6 Nordeste 0 -- -- 87
2017-09-17 01:00:00 16.3 0 Calma 6 Este 0 -- -- 85
2017-09-17 00:00:00 17.7 6 Sudeste 15 Sudeste 0 -- -- 80
2017-09-16 23:00:00 18.3 11 Sudeste 23 Sudeste 0 -- -- 75
2017-09-16 22:00:00 18.7 11 Sudeste 28 Sudeste 0 -- -- 72
2017-09-16 21:00:00 18.6 16 Sudeste 32 Sudeste 0 -- -- 72
2017-09-16 20:00:00 19.2 17 Sudeste 35 Sudeste 0 -- -- 68
2017-09-16 19:00:00 20.7 23 Sudeste 42 Sudeste 0 -- -- 60
2017-09-16 18:00:00 21.5 21 Sudeste 37 Sudeste 0 -- -- 55
2017-09-16 17:00:00 21.8 19 Sudeste 38 Sudeste 0 -- -- 53
2017-09-16 16:00:00 23.8 11 Sudeste 22 Sudeste 0 -- -- 46
2017-09-16 15:00:00 23.7 12 Sudeste 23 Sudeste 0 -- -- 49
2017-09-16 14:00:00 22.9 10 Este 26 Sudeste 0 -- -- 52
2017-09-16 13:00:00 22.2 6 Sudeste 20 Sudeste 0 -- -- 53
2017-09-16 12:00:00 20.4 4 Norte 9 Nordeste 0 -- -- 57
2017-09-16 11:00:00 18.4 2 Noroeste 8 Norte 0 -- -- 63
2017-09-16 10:00:00 16.5 3 Oeste 9 Oeste 0 -- -- 74
2017-09-16 09:00:00 15.7 6 Oeste 10 Oeste 0 -- -- 79
2017-09-16 08:00:00 15 4 Noroeste 10 Oeste 0 -- -- 85
2017-09-16 07:00:00 14.6 5 Oeste 11 Oeste 0 -- -- 87
2017-09-16 06:00:00 14.9 5 Noroeste 17 Oeste 0 -- -- 84
2017-09-16 05:00:00 15.2 6 Noroeste 18 Oeste 0 -- -- 86
2017-09-16 04:00:00 16 5 Noroeste 17 Oeste 0 -- -- 82
2017-09-16 03:00:00 16.7 4 Noroeste 23 Nordeste 0 -- -- 76
2017-09-16 02:00:00 16.4 13 Nordeste 27 Norte 0 -- -- 78
2017-09-16 01:00:00 16.8 10 Norte 31 Nordeste 0.3 -- -- 81
2017-09-16 00:00:00 17.5 12 Nordeste 30 Nordeste 0.2 -- -- 79
2017-09-15 23:00:00 17.9 11 Nordeste 30 Nordeste 0 -- -- 81
2017-09-15 22:00:00 18.2 3 Este 23 Nordeste 0.2 -- -- 87
2017-09-15 21:00:00 18.4 12 Nordeste 34 Este 2 -- -- 89
2017-09-15 20:00:00 21.9 12 Este 40 Sudeste 0 -- -- 80
2017-09-15 19:00:00 22.8 25 Sudeste 51 Sudeste 0 -- -- 75
2017-09-15 18:00:00 25 25 Sudeste 41 Sudeste 0 -- -- 60
2017-09-15 17:00:00 26.7 22 Sudeste 42 Este 0 -- -- 54
2017-09-15 16:00:00 28.1 17 Sudeste 32 Sudeste 0 -- -- 47
2017-09-15 15:00:00 29.3 12 Sudeste 30 Sudeste 0 -- -- 44
2017-09-15 14:00:00 28 11 Sudeste 24 Sudeste 0 -- -- 47
2017-09-15 13:00:00 26.6 5 Sudeste 18 Este 0 -- -- 53
2017-09-15 12:00:00 24.9 6 Sudeste 15 Sudeste 0 -- -- 59
2017-09-15 11:00:00 -- 3 Noroeste 9 Oeste 0 -- -- --
2017-09-15 10:00:00 21.7 2 Noroeste 6 Oeste 0 -- -- 70
2017-09-15 09:00:00 19.5 4 Oeste 6 Oeste 0 -- -- 75
2017-09-15 08:00:00 18.9 0 Calma 8 Oeste 0 -- -- 73
2017-09-15 07:00:00 19.3 3 Norte 7 Sudeste 0 -- -- 76
2017-09-15 06:00:00 19.7 0 Calma 14 Nordeste 0 -- -- 70
2017-09-15 05:00:00 21.2 3 Norte 7 Norte 0 -- -- 64
2017-09-15 04:00:00 22.5 0 Calma 9 Este 0 -- -- 52
2017-09-15 03:00:00 23.7 3 Nordeste 12 Este 0 -- -- 45
2017-09-15 02:00:00 23.8 6 Nordeste 18 Nordeste 0 -- -- 43
2017-09-15 01:00:00 23.2 2 Norte 9 Noroeste 0 -- -- 42
2017-09-15 00:00:00 25.1 6 Nordeste 16 Nordeste 0 -- -- 37
2017-09-14 23:00:00 23.9 4 Sudeste 12 Sudeste 0 -- -- 37
2017-09-14 22:00:00 26.4 9 Sudeste 18 Sudeste 0 -- -- 31
2017-09-14 21:00:00 27.5 6 Sudeste 23 Este 0 -- -- 28
2017-09-14 20:00:00 30.1 9 Este 21 Este 0 -- -- 24
2017-09-14 19:00:00 32.7 9 Sur 24 Sur 0 -- -- 23
2017-09-14 18:00:00 34.1 11 Sur 25 Sudeste 0 -- -- 20
2017-09-14 17:00:00 35.8 0 Calma 21 Sudoeste 0 -- -- 18
2017-09-14 16:00:00 35.3 5 Oeste 14 Sudoeste 0 -- -- 19
2017-09-14 15:00:00 34.6 7 Sudoeste 18 Oeste 0 -- -- 21
2017-09-14 14:00:00 32.7 5 Noroeste 12 Oeste 0 -- -- 24
2017-09-14 13:00:00 29.5 4 Sudoeste 13 Oeste 0 -- -- 32
2017-09-14 12:00:00 26.2 9 Oeste 17 Oeste 0 -- -- 41
2017-09-14 11:00:00 22 10 Oeste 17 Oeste 0 -- -- 60
2017-09-14 10:00:00 18.6 11 Oeste 18 Oeste 0 -- -- 71
2017-09-14 09:00:00 15.8 8 Oeste 13 Oeste 0 -- -- 87
2017-09-14 08:00:00 15.3 9 Oeste 15 Oeste 0 -- -- 90
2017-09-14 07:00:00 15.7 9 Oeste 13 Oeste 0 -- -- 90
2017-09-14 06:00:00 16.5 10 Oeste 15 Oeste 0 -- -- 90
2017-09-14 05:00:00 17 11 Oeste 15 Oeste 0 -- -- 90
2017-09-14 04:00:00 18.3 7 Oeste 9 Oeste 0 -- -- 86
2017-09-14 03:00:00 17.7 2 Nordeste 8 Nordeste 0 -- -- 80
2017-09-14 02:00:00 18.2 2 Sudeste 9 Sudeste 0 -- -- 83
2017-09-14 01:00:00 19.6 5 Sudeste 17 Sudeste 0 -- -- 82
2017-09-14 00:00:00 21 11 Sudeste 19 Sudeste 0 -- -- 77
2017-09-13 23:00:00 21.7 13 Sudeste 22 Sudeste 0 -- -- 76
2017-09-13 22:00:00 22.4 14 Sudeste 28 Sudeste 0 -- -- 70
2017-09-13 21:00:00 23.5 18 Sudeste 33 Este 0 -- -- 54
2017-09-13 20:00:00 25 21 Sudeste 39 Sudeste 0 -- -- 46
2017-09-13 19:00:00 26.9 24 Sudeste 41 Sudeste 0 -- -- 38
2017-09-13 18:00:00 28.4 23 Sudeste 40 Sudeste 0 -- -- 32
2017-09-13 17:00:00 29.4 18 Sudeste 44 Sudeste 0 -- -- 31
2017-09-13 16:00:00 29.4 17 Sudeste 37 Sudeste 0 -- -- 29
2017-09-13 15:00:00 29.2 15 Sudeste 30 Sudeste 0 -- -- 29
2017-09-13 14:00:00 28.5 14 Sudeste 39 Sudeste 0 -- -- 31
2017-09-13 13:00:00 27.2 14 Sudeste 24 Sudeste 0 -- -- 33
2017-09-13 12:00:00 25.5 10 Este 22 Este 0 -- -- 38
2017-09-13 11:00:00 21.5 4 Norte 11 Noroeste 0 -- -- 57
2017-09-13 10:00:00 18.5 6 Oeste 10 Oeste 0 -- -- 79
2017-09-13 09:00:00 16.4 6 Oeste 11 Noroeste 0 -- -- 90
2017-09-13 08:00:00 15.8 5 Oeste 9 Oeste 0 -- -- 90
2017-09-13 07:00:00 16.2 5 Oeste 8 Oeste 0 -- -- 90
2017-09-13 06:00:00 16.6 0 Calma 9 Norte 0 -- -- 87
2017-09-13 05:00:00 17.5 8 Nordeste 15 Nordeste 0 -- -- 82
2017-09-13 04:00:00 17.4 2 Nordeste 8 Nordeste 0 -- -- 87
2017-09-13 03:00:00 17.6 0 Calma 9 Sudeste 0 -- -- 84
2017-09-13 02:00:00 18.4 0 Calma 9 Este 0 -- -- 83
2017-09-13 01:00:00 19.3 4 Este 13 Sudeste 0 -- -- 80
2017-09-13 00:00:00 20.7 9 Sudeste 16 Sudeste 0 -- -- 75
2017-09-12 23:00:00 21 9 Sudeste 21 Sur 0 -- -- 73
2017-09-12 22:00:00 21.6 12 Sudeste 30 Sudeste 0 -- -- 69
2017-09-12 21:00:00 22.5 17 Sudeste 33 Sudeste 0 -- -- 63
2017-09-12 20:00:00 23.7 19 Sudeste 36 Sudeste 0 -- -- 56
2017-09-12 19:00:00 25.1 26 Sudeste 75 Sudeste 0 -- -- 51
2017-09-12 18:00:00 26.5 24 Sudeste 43 Sudeste 0 -- -- 47
2017-09-12 17:00:00 27.9 25 Sudeste 42 Sudeste 0 -- -- 44
2017-09-12 16:00:00 29.4 21 Sudeste 36 Sudeste 0 -- -- 41
2017-09-12 15:00:00 32.1 4 Nordeste 17 Norte 0 -- -- 25
2017-09-12 14:00:00 30.8 3 Norte 19 Norte 0 -- -- 28
2017-09-12 13:00:00 29.6 7 Noroeste 21 Norte 0 -- -- 31
2017-09-12 12:00:00 27.6 7 Oeste 17 Oeste 0 -- -- 35
2017-09-12 11:00:00 24.7 8 Oeste 15 Oeste 0 -- -- 41
2017-09-12 10:00:00 21 7 Oeste 11 Oeste 0 -- -- 49
2017-09-12 09:00:00 17.7 5 Noroeste 14 Oeste 0 -- -- 57
2017-09-12 08:00:00 15.6 9 Oeste 14 Oeste 0 -- -- 64
2017-09-12 07:00:00 17.7 9 Oeste 17 Oeste 0 -- -- 53
2017-09-12 06:00:00 18.1 11 Oeste 17 Oeste 0 -- -- 53
2017-09-12 05:00:00 18.7 9 Oeste 15 Oeste 0 -- -- 51
2017-09-12 04:00:00 18.7 12 Oeste 17 Oeste 0 -- -- 54
2017-09-12 03:00:00 19.7 9 Oeste 12 Oeste 0 -- -- 50
2017-09-12 02:00:00 19.4 7 Oeste 15 Oeste 0 -- -- 50
2017-09-12 01:00:00 20.8 9 Oeste 11 Oeste 0 -- -- 45
2017-09-12 00:00:00 20.4 3 Sudoeste 6 Oeste 0 -- -- 44
2017-09-11 23:00:00 22 2 Este 17 Sudeste 0 -- -- 38
2017-09-11 22:00:00 25.2 11 Sudeste 19 Sudeste 0 -- -- 31
2017-09-11 21:00:00 26.4 12 Sudeste 23 Este 0 -- -- 29
2017-09-11 20:00:00 28.7 9 Este 22 Sudeste 0 -- -- 27
2017-09-11 19:00:00 30.6 14 Sudeste 25 Sudeste 0 -- -- 25
2017-09-11 18:00:00 31.6 15 Sudeste 27 Sudeste 0 -- -- 23
2017-09-11 17:00:00 32.6 12 Sudeste 24 Sudeste 0 -- -- 23
2017-09-11 16:00:00 32.9 7 Sudeste 14 Noroeste 0 -- -- 24
2017-09-11 15:00:00 32 5 Sudeste 13 Sudeste 0 -- -- 25
2017-09-11 14:00:00 30.2 3 Noroeste 12 Oeste 0 -- -- 26
2017-09-11 13:00:00 28 4 Oeste 15 Sudoeste 0 -- -- 27
2017-09-11 12:00:00 26.3 9 Oeste 17 Oeste 0 -- -- 28
2017-09-11 11:00:00 23.8 9 Oeste 15 Oeste 0 -- -- 33
2017-09-11 10:00:00 20.1 7 Oeste 13 Oeste 0 -- -- 37
2017-09-11 09:00:00 17.2 9 Oeste 13 Oeste 0 -- -- 42
2017-09-11 08:00:00 15.3 9 Oeste 13 Oeste 0 -- -- 42
2017-09-11 07:00:00 17.8 8 Oeste 12 Oeste 0 -- -- 37
2017-09-11 06:00:00 17.9 9 Oeste 14 Sudoeste 0 -- -- 37
2017-09-11 05:00:00 17.9 7 Oeste 16 Oeste 0 -- -- 37
2017-09-11 04:00:00 16.6 10 Oeste 15 Oeste 0 -- -- 41
2017-09-11 03:00:00 17.3 8 Oeste 15 Oeste 0 -- -- 39
2017-09-11 02:00:00 17.7 9 Oeste 11 Oeste 0 -- -- 36
2017-09-11 01:00:00 18.4 5 Oeste 14 Oeste 0 -- -- 34
2017-09-11 00:00:00 21 10 Oeste 15 Oeste 0 -- -- 29
2017-09-10 23:00:00 20.4 9 Sudoeste 15 Sudoeste 0 -- -- 29
2017-09-10 22:00:00 23 5 Noroeste 24 Norte 0 -- -- 25
2017-09-10 21:00:00 24 11 Norte 26 Norte 0 -- -- 24
2017-09-10 20:00:00 25.3 13 Norte 35 Norte 0 -- -- 22
2017-09-10 19:00:00 26.6 14 Norte 36 Norte 0 -- -- 22
2017-09-10 18:00:00 26.7 17 Norte 41 Norte 0 -- -- 22
2017-09-10 17:00:00 26.8 13 Noroeste 45 Oeste 0 -- -- 22
2017-09-10 16:00:00 26 14 Noroeste 50 Oeste 0 -- -- 22
2017-09-10 15:00:00 26 10 Noroeste 42 Noroeste 0 -- -- 25
2017-09-10 14:00:00 24.6 12 Noroeste 36 Norte 0 -- -- 28
2017-09-10 13:00:00 23 10 Noroeste 46 Norte 0 -- -- 30
2017-09-10 12:00:00 21.6 15 Noroeste 37 Norte 0 -- -- 33
2017-09-10 11:00:00 20.4 10 Noroeste 41 Noroeste 0 -- -- 36
2017-09-10 10:00:00 18.7 14 Oeste 39 Noroeste 0 -- -- 41
2017-09-10 09:00:00 17.2 12 Oeste 26 Oeste 0 -- -- 47
2017-09-10 08:00:00 16.3 10 Oeste 18 Oeste 0 -- -- 50
2017-09-10 07:00:00 16.7 6 Noroeste 17 Noroeste 0 -- -- 51
2017-09-10 06:00:00 17.5 5 Noroeste 16 Noroeste 0 -- -- 51
2017-09-10 05:00:00 18.8 5 Noroeste 19 Noroeste 0 -- -- 46
2017-09-10 04:00:00 20.5 8 Oeste 19 Noroeste 0 -- -- 31
2017-09-10 03:00:00 20.9 4 Noroeste 21 Noroeste 0 -- -- 32
2017-09-10 02:00:00 21.8 10 Oeste 20 Oeste 0 -- -- 38
2017-09-10 01:00:00 21.7 5 Oeste 12 Oeste 0 -- -- 39
2017-09-10 00:00:00 23.1 2 Oeste 23 Noroeste 0 -- -- 34
2017-09-09 23:00:00 24.5 14 Norte 33 Norte 0 -- -- 30
2017-09-09 22:00:00 25.3 6 Noroeste 27 Noroeste 0 -- -- 30
2017-09-09 21:00:00 25.9 18 Norte 32 Norte 0 -- -- 29
2017-09-09 20:00:00 26.7 19 Norte 33 Norte 0 -- -- 26
2017-09-09 19:00:00 28.7 8 Oeste 14 Oeste 0 -- -- 24
2017-09-09 18:00:00 28.4 4 Oeste 8 Oeste 0 -- -- 26
2017-09-09 17:00:00 27.1 2 Sudoeste 7 Sudoeste 0 -- -- 31
2017-09-09 16:00:00 25.6 4 Oeste 6 Oeste 0 -- -- 35
2017-09-09 15:00:00 25.4 3 Oeste 14 Oeste 0 -- -- 40
2017-09-09 14:00:00 24.4 7 Oeste 13 Oeste 0 -- -- 55
2017-09-09 13:00:00 23.1 8 Oeste 15 Oeste 0 -- -- 61
2017-09-09 12:00:00 21.7 11 Oeste 19 Noroeste 0 -- -- 76
2017-09-09 11:00:00 21.1 13 Oeste 20 Oeste 0 -- -- 79
2017-09-09 10:00:00 19.5 12 Oeste 22 Oeste 0 -- -- 91
2017-09-09 09:00:00 18.8 13 Oeste 19 Oeste 0 -- -- 92
2017-09-09 08:00:00 18.8 10 Oeste 18 Oeste 0 -- -- 92
2017-09-09 07:00:00 18.9 9 Oeste 16 Oeste 0 -- -- 92
2017-09-09 06:00:00 19.2 6 Oeste 9 Oeste 0 -- -- 92
2017-09-09 05:00:00 19.9 0 Calma -- -- 0 -- -- 92
2017-09-09 04:00:00 19.3 0 Calma 3 Este 0 -- -- 91
2017-09-09 03:00:00 19.5 0 Calma 6 Sudeste 0 -- -- 90
2017-09-09 02:00:00 20.4 0 Calma -- -- 0 -- -- 90
2017-09-09 01:00:00 20.8 0 Calma 12 Sudeste 0 -- -- 88
2017-09-09 00:00:00 22.1 10 Sudeste 19 Sudeste 0 -- -- 85
2017-09-08 23:00:00 22.7 14 Sudeste 24 Sudeste 0 -- -- 82
2017-09-08 22:00:00 23.4 16 Sudeste 28 Sudeste 0 -- -- 77
2017-09-08 21:00:00 24.3 17 Sudeste 33 Sudeste 0 -- -- 70
2017-09-08 20:00:00 25.8 21 Sudeste 39 Sudeste 0 -- -- 59
2017-09-08 19:00:00 27.8 22 Sudeste 38 Sudeste 0 -- -- 50
2017-09-08 18:00:00 29 17 Este 35 Este 0 -- -- 47
2017-09-08 17:00:00 29.4 16 Sudeste 33 Sudeste 0 -- -- 44
2017-09-08 16:00:00 29 15 Sudeste 30 Sudeste 0 -- -- 45
2017-09-08 15:00:00 28.5 14 Sudeste 29 Sudeste 0 -- -- 47
2017-09-08 14:00:00 28.2 12 Sudeste 26 Este 0 -- -- 50
2017-09-08 13:00:00 26.5 8 Este 20 Sudeste 0 -- -- 57
2017-09-08 12:00:00 24.2 3 Norte 8 Oeste 0 -- -- 66
2017-09-08 11:00:00 23.3 0 Calma 7 Norte 0 -- -- 73
2017-09-08 10:00:00 21.7 0 Calma 7 Oeste 0 -- -- 83
2017-09-08 09:00:00 20.6 0 Calma 6 Nordeste 0 -- -- 88
2017-09-08 08:00:00 19.9 0 Calma 6 Sudeste 0 -- -- 89
2017-09-08 07:00:00 20.1 0 Calma 5 Nordeste 0 -- -- 89
2017-09-08 06:00:00 20 0 Calma 9 Sudeste 0 -- -- 91
2017-09-08 05:00:00 19.7 5 Este 10 Este 0 -- -- 91
2017-09-08 04:00:00 19.7 0 Calma 8 Este 0 -- -- 91
2017-09-08 03:00:00 20.1 4 Este 15 Sudeste 0 -- -- 90
2017-09-08 02:00:00 21.2 9 Sudeste 17 Sudeste 0 -- -- 89
2017-09-08 01:00:00 21.7 8 Sudeste 15 Sudeste 0 -- -- 86
2017-09-08 00:00:00 22.2 9 Sudeste 19 Sudeste 0 -- -- 83
2017-09-07 23:00:00 22.8 12 Sudeste 21 Sudeste 0 -- -- 76
2017-09-07 22:00:00 23.2 13 Sudeste 24 Este 0 -- -- 74
2017-09-07 21:00:00 23.9 15 Sudeste 32 Sudeste 0 -- -- 68
2017-09-07 20:00:00 25.1 19 Sudeste 31 Sudeste 0 -- -- 62
2017-09-07 19:00:00 26.1 17 Sudeste 32 Sudeste 0 -- -- 57
2017-09-07 18:00:00 27.4 16 Este 36 Este 0 -- -- 51
2017-09-07 17:00:00 28 19 Sudeste 31 Este 0 -- -- 46
2017-09-07 16:00:00 28.4 15 Sudeste 36 Este 0 -- -- 45
2017-09-07 15:00:00 28.1 15 Sudeste 28 Sudeste 0 -- -- 45
2017-09-07 14:00:00 27.1 14 Sudeste 28 Sudeste 0 -- -- 47
2017-09-07 13:00:00 26.4 9 Este 21 Sudeste 0.1 -- -- 51
2017-09-07 12:00:00 24.9 5 Este 14 Este 0 -- -- 63
2017-09-07 11:00:00 22.3 3 Este 8 Este 0 -- -- 79
2017-09-07 10:00:00 20.8 0 Calma 14 Norte 0 -- -- 91
2017-09-07 09:00:00 -- 7 Sudeste 21 Sur 0.1 -- -- --
2017-09-07 08:00:00 20.8 3 Noroeste 16 Sudoeste 0 -- -- 89
2017-09-07 07:00:00 20.5 0 Calma 10 Oeste 0 -- -- 89
2017-09-07 06:00:00 20.3 2 Noroeste 7 Noroeste 0 -- -- 89
2017-09-07 05:00:00 20.5 0 Calma 7 Norte 0 -- -- 90
2017-09-07 04:00:00 19.8 2 Este 6 Sudeste 0 -- -- 91
2017-09-07 03:00:00 20.4 0 Calma 10 Este 0 -- -- 89
2017-09-07 02:00:00 21.3 4 Este 14 Sudeste 0 -- -- 89
2017-09-07 01:00:00 21.6 5 Sudeste 13 Sudeste 0 -- -- 88
2017-09-07 00:00:00 21.9 9 Sudeste 20 Sudeste 0 -- -- 86
2017-09-06 23:00:00 22.2 11 Sudeste 27 Sudeste 0 -- -- 85
2017-09-06 22:00:00 22.9 16 Sudeste 31 Sudeste 0 -- -- 79
2017-09-06 21:00:00 23.8 18 Sudeste 30 Sudeste 0 -- -- 69
2017-09-06 20:00:00 25.2 20 Sudeste 33 Sudeste 0 -- -- 54
2017-09-06 19:00:00 26.8 19 Sudeste 40 Sudeste 0 -- -- 47
2017-09-06 18:00:00 28.1 22 Sudeste 39 Sudeste 0 -- -- 41
2017-09-06 17:00:00 29.5 25 Sudeste 39 Sudeste 0 -- -- 36
2017-09-06 16:00:00 30.7 18 Sudeste 32 Sudeste 0 -- -- 29
2017-09-06 15:00:00 31.4 15 Sudeste 26 Sudeste 0 -- -- 28
2017-09-06 14:00:00 29.8 10 Sudeste 24 Sudeste 0 -- -- 30
2017-09-06 13:00:00 28.9 10 Este 23 Este 0 -- -- 33
2017-09-06 12:00:00 26.6 5 Sudeste 13 Este 0 -- -- 44
2017-09-06 11:00:00 22.7 6 Oeste 12 Oeste 0 -- -- 66
2017-09-06 10:00:00 20.2 7 Oeste 13 Oeste 0 -- -- 81
2017-09-06 09:00:00 18.8 9 Oeste 13 Oeste 0 -- -- 86
2017-09-06 08:00:00 17.7 9 Oeste 11 Oeste 0 -- -- 90
2017-09-06 07:00:00 18.2 0 Calma 6 Oeste 0 -- -- 89
2017-09-06 06:00:00 18.5 0 Calma 7 Oeste 0 -- -- 86
2017-09-06 05:00:00 18.5 0 Calma 10 Este 0 -- -- 74
2017-09-06 04:00:00 18.7 3 Nordeste 8 Nordeste 0 -- -- 78
2017-09-06 03:00:00 19.3 0 Calma 8 Sudeste 0 -- -- 88
2017-09-06 02:00:00 20.6 5 Este 11 Sudeste 0 -- -- 87
2017-09-06 01:00:00 21.4 0 Calma 7 Sudeste 0 -- -- 81
2017-09-06 00:00:00 22.6 6 Sudeste 15 Sudeste 0 -- -- 71
2017-09-05 23:00:00 23.4 9 Sudeste 23 Sudeste 0 -- -- 67
2017-09-05 22:00:00 24.2 15 Sudeste 25 Sudeste 0 -- -- 60
2017-09-05 21:00:00 25.2 14 Sudeste 33 Sudeste 0 -- -- 52
2017-09-05 20:00:00 27.1 17 Sudeste 33 Sudeste 0 -- -- 41
2017-09-05 19:00:00 28.9 19 Sudeste 34 Sudeste 0 -- -- 36
2017-09-05 18:00:00 30.2 18 Sudeste 36 Sudeste 0 -- -- 35
2017-09-05 17:00:00 30.6 18 Sudeste 31 Este 0 -- -- 37
2017-09-05 16:00:00 30.2 14 Sudeste 28 Sudeste 0 -- -- 38
2017-09-05 15:00:00 29.8 13 Sudeste 32 Sudeste 0 -- -- 40
2017-09-05 14:00:00 29.2 10 Sudeste 23 Sudeste 0 -- -- 41
2017-09-05 13:00:00 28 10 Este 21 Este 0 -- -- 47
2017-09-05 12:00:00 26.9 5 Sudeste 15 Sur 0 -- -- 51
2017-09-05 11:00:00 24.4 3 Sudeste 9 Sudeste 0 -- -- 67
2017-09-05 10:00:00 22.3 3 Oeste 8 Oeste 0 -- -- 84
2017-09-05 09:00:00 21.8 2 Norte 5 Norte 0 -- -- 89
2017-09-05 08:00:00 20.8 0 Calma 8 Nordeste 0 -- -- 91
2017-09-05 07:00:00 21 2 Norte 8 Norte 0 -- -- 90
2017-09-05 06:00:00 21.5 0 Calma -- -- 0 -- -- 90
2017-09-05 05:00:00 21.4 0 Calma 6 Oeste 0 -- -- 90
2017-09-05 04:00:00 21.4 5 Oeste 8 Oeste 0 -- -- 90
2017-09-05 03:00:00 21.5 0 Calma -- -- 0 -- -- 90
2017-09-05 02:00:00 21.7 0 Calma 9 Sudeste 0 -- -- 86
2017-09-05 01:00:00 22.5 6 Sudeste 17 Sudeste 0 -- -- 86
2017-09-05 00:00:00 22.7 8 Sudeste 19 Sur 0 -- -- 86
2017-09-04 23:00:00 23 11 Sudeste 25 Sudeste 0 -- -- 83
2017-09-04 22:00:00 23.4 14 Sudeste 32 Sudeste 0 -- -- 79
2017-09-04 21:00:00 24.3 19 Sudeste 36 Sudeste 0 -- -- 76
2017-09-04 20:00:00 26 23 Sudeste 42 Sudeste 0 -- -- 60
2017-09-04 19:00:00 28.6 19 Sudeste 36 Sudeste 0 -- -- 47
2017-09-04 18:00:00 30.2 19 Sudeste 36 Este 0 -- -- 41
2017-09-04 17:00:00 31.1 19 Sudeste 34 Sudeste 0 -- -- 38
2017-09-04 16:00:00 33 13 Sudeste 30 Este 0 -- -- 28
2017-09-04 15:00:00 33.6 13 Sudeste 30 Sudeste 0 -- -- 25
2017-09-04 14:00:00 32.8 5 Nordeste 14 Oeste 0 -- -- 24
2017-09-04 13:00:00 30.9 4 Oeste 12 Oeste 0 -- -- 31
2017-09-04 12:00:00 28.2 7 Oeste 14 Oeste 0 -- -- 38
2017-09-04 11:00:00 25.2 9 Oeste 17 Oeste 0 -- -- 56
2017-09-04 10:00:00 21.6 10 Oeste 18 Oeste 0 -- -- 76
2017-09-04 09:00:00 19.5 10 Oeste 14 Oeste 0 -- -- 87
2017-09-04 08:00:00 19.2 12 Oeste 17 Oeste 0 -- -- 90
2017-09-04 07:00:00 18.8 11 Oeste 15 Oeste 0 -- -- 92
2017-09-04 06:00:00 19.5 9 Oeste 14 Oeste 0 -- -- 90
2017-09-04 05:00:00 20.2 8 Oeste 9 Oeste 0 -- -- 89
2017-09-04 04:00:00 19.9 0 Calma 4 Sudeste 0 -- -- 88
2017-09-04 03:00:00 20.5 0 Calma 5 Sudeste 0 -- -- 86
2017-09-04 02:00:00 21.7 0 Calma 14 Sudeste 0 -- -- 81
2017-09-04 01:00:00 22.7 8 Sudeste 14 Sudeste 0 -- -- 76
2017-09-04 00:00:00 23.3 10 Sudeste 14 Sudeste 0 -- -- 73
2017-09-03 23:00:00 23.9 10 Sudeste 18 Sudeste 0 -- -- 69
2017-09-03 22:00:00 24.5 13 Sudeste 25 Sudeste 0 -- -- 63
2017-09-03 21:00:00 25.8 16 Sudeste 28 Sudeste 0 -- -- 57
2017-09-03 20:00:00 28 13 Sudeste 28 Sudeste 0 -- -- 47
2017-09-03 19:00:00 29.5 14 Sudeste 24 Sudeste 0 -- -- 41
2017-09-03 18:00:00 29.7 13 Sudeste 26 Este 0 -- -- 41
2017-09-03 17:00:00 29.6 14 Sudeste 28 Sudeste 0 -- -- 42
2017-09-03 16:00:00 29.9 15 Sudeste 29 Este 0 -- -- 45
2017-09-03 15:00:00 28.2 13 Este 24 Este 0 -- -- 50
2017-09-03 14:00:00 26.7 8 Sudeste 15 Sudeste 0 -- -- 55
2017-09-03 13:00:00 25.1 3 Sudeste 11 Sudeste 0 -- -- 59
2017-09-03 12:00:00 23.3 3 Noroeste 9 Sur 0 -- -- 69
2017-09-03 11:00:00 21.2 0 Calma 6 Noroeste 0 -- -- 79
2017-09-03 10:00:00 -- 0 Calma -- -- 0 -- -- --
2017-09-03 09:00:00 -- 0 Calma 4 Este 0 -- -- --
2017-09-03 08:00:00 -- 0 Calma -- -- 0 -- -- --
2017-09-03 07:00:00 -- 0 Calma -- -- 0 -- -- --
2017-09-03 06:00:00 -- 0 Calma 4 Sudeste 0 -- -- --
2017-09-03 05:00:00 -- 0 Calma 9 Nordeste 0 -- -- --
2017-09-03 04:00:00 -- 0 Calma 6 Este 0 -- -- --
2017-09-03 03:00:00 -- 2 Sudeste 6 Sudeste 0 -- -- --
2017-09-03 02:00:00 -- 0 Calma 6 Este 0 -- -- --
2017-09-03 01:00:00 -- 4 Este 12 Sudeste 0 -- -- --
2017-09-03 00:00:00 -- 8 Sudeste 18 Sudeste 0 -- -- --
2017-09-02 23:00:00 -- 12 Sudeste 24 Sudeste 0 -- -- --
2017-09-02 22:00:00 -- 14 Sudeste 32 Sudeste 0 -- -- --
2017-09-02 21:00:00 -- 16 Sudeste 34 Sudeste 0 -- -- --
2017-09-02 20:00:00 -- 18 Sudeste 34 Sudeste 0 -- -- --
2017-09-02 19:00:00 -- 17 Sudeste 29 Sudeste 0 -- -- --
2017-09-02 18:00:00 -- 14 Sudeste 26 Sudeste 0 -- -- --
2017-09-02 17:00:00 -- 10 Sudeste 28 Sudeste 0 -- -- --
2017-09-02 16:00:00 -- 13 Sudeste 24 Sudeste 0 -- -- --
2017-09-02 15:00:00 -- 11 Sudeste 25 Este 0 -- -- --
2017-09-02 14:00:00 -- 11 Sudeste 25 Sudeste 0 -- -- --
2017-09-02 13:00:00 -- 10 Sudeste 20 Este 0 -- -- --
2017-09-02 12:00:00 -- 11 Sudeste 19 Este 0 -- -- --
2017-09-02 11:00:00 -- 12 Sudeste 17 Sudeste 0 -- -- --
2017-09-02 10:00:00 -- 10 Sudeste 19 Este 0 -- -- --
2017-09-02 09:00:00 -- 4 Este 11 Sudeste 0 -- -- --
2017-09-02 08:00:00 -- 2 Sur 12 Este 0.1 -- -- --
2017-09-02 07:00:00 -- 4 Este 20 Sudeste 3.9 -- -- --
2017-09-02 06:00:00 -- 2 Este 10 Sudeste 0.1 -- -- --
2017-09-02 05:00:00 -- 5 Sudeste 12 Sudeste 0 -- -- --
2017-09-02 04:00:00 -- 5 Sudeste 10 Sudeste 0 -- -- --
2017-09-02 03:00:00 -- 8 Sudeste 17 Sudeste 0 -- -- --
2017-09-02 02:00:00 -- 10 Sudeste 20 Sudeste 0 -- -- --
2017-09-02 01:00:00 -- 12 Sudeste 23 Sudeste 0 -- -- --
2017-09-02 00:00:00 -- 17 Sudeste 30 Sudeste 0 -- -- --
2017-09-01 23:00:00 -- 13 Sudeste 28 Sudeste 0 -- -- --
2017-09-01 22:00:00 -- 17 Sudeste 33 Sudeste 0 -- -- --
2017-09-01 21:00:00 -- 23 Sudeste 36 Sudeste 0 -- -- --
2017-09-01 20:00:00 -- 20 Sudeste 59 Sudeste 0 -- -- --
2017-09-01 19:00:00 -- 20 Sudeste 43 Sudeste 0 -- -- --
2017-09-01 18:00:00 -- 20 Sudeste 34 Este 0 -- -- --
2017-09-01 17:00:00 -- 20 Sudeste 33 Sudeste 0 -- -- --
2017-09-01 16:00:00 -- 18 Sudeste 36 Sudeste 0 -- -- --
2017-09-01 15:00:00 -- 13 Sudeste 26 Este 0 -- -- --
2017-09-01 14:00:00 27.9 11 Sudeste 18 Sudeste 0 -- -- 45
2017-09-01 13:00:00 26.8 0 Calma 12 Oeste 0 -- -- 49
2017-09-01 12:00:00 25.3 7 Oeste 16 Oeste 0 -- -- 57
2017-09-01 11:00:00 22.8 8 Oeste 18 Oeste 0 -- -- 70
2017-09-01 10:00:00 21.3 10 Oeste 16 Oeste 0 -- -- 82
2017-09-01 09:00:00 19 7 Oeste 13 Noroeste 0 -- -- 91
2017-09-01 08:00:00 18.6 9 Oeste 13 Oeste 0 -- -- 91
2017-09-01 07:00:00 18.9 8 Oeste 12 Oeste 0 -- -- 91
2017-09-01 06:00:00 19.1 3 Noroeste 11 Oeste 0 -- -- 91
2017-09-01 05:00:00 19.4 9 Oeste 11 Oeste 0 -- -- 91
2017-09-01 04:00:00 19.7 7 Oeste 9 Oeste 0 -- -- 91
2017-09-01 03:00:00 20.1 3 Oeste 6 Oeste 0 -- -- 90
2017-09-01 02:00:00 20.3 0 Calma 5 Sudeste 0 -- -- 89
2017-09-01 01:00:00 21.2 0 Calma 16 Sudeste 0 -- -- 87
2017-09-01 00:00:00 22 12 Sudeste 18 Sudeste 0 -- -- 85
2017-08-31 23:00:00 22.3 11 Sudeste 23 Sudeste 0 -- -- 81
2017-08-31 22:00:00 23.1 14 Sudeste 24 Sudeste 0 -- -- 75
2017-08-31 21:00:00 23.8 9 Sudeste 22 Sudeste 0 -- -- 60
2017-08-31 20:00:00 24.7 14 Sudeste 28 Sudeste 0 -- -- 54
2017-08-31 19:00:00 25.2 18 Sudeste 33 Sudeste 0 -- -- 51
2017-08-31 18:00:00 25.9 18 Este 34 Sudeste 0 -- -- 50
2017-08-31 17:00:00 28.4 15 Sudeste 30 Sudeste 0 -- -- 39
2017-08-31 16:00:00 29.3 13 Este 27 Este 0 -- -- 37
2017-08-31 15:00:00 28.8 9 Este 19 Sudeste 0 -- -- 38
2017-08-31 14:00:00 27.4 0 Calma 10 Oeste 0 -- -- 46
2017-08-31 13:00:00 24.4 5 Oeste 15 Oeste 0 -- -- 64
2017-08-31 12:00:00 22.8 12 Oeste 18 Oeste 0 -- -- 73
2017-08-31 11:00:00 20.6 11 Oeste 19 Oeste 0 -- -- 86
2017-08-31 10:00:00 19.5 10 Oeste 15 Oeste 0 -- -- 91
2017-08-31 09:00:00 19 9 Oeste 15 Oeste 0 -- -- 91
2017-08-31 08:00:00 18.8 8 Oeste 12 Noroeste 0 -- -- 91
2017-08-31 07:00:00 18.8 7 Oeste 10 Oeste 0 -- -- 91
2017-08-31 06:00:00 19.2 9 Oeste 14 Oeste 0 -- -- 91
2017-08-31 05:00:00 19.6 0 Calma 6 Oeste 0 -- -- 90
2017-08-31 04:00:00 19.5 5 Oeste 8 Oeste 0 -- -- 90
2017-08-31 03:00:00 19.5 0 Calma 3 Sudeste 0 -- -- 89
2017-08-31 02:00:00 20.4 3 Sudeste 13 Sudeste 0 -- -- 86
2017-08-31 01:00:00 20.3 5 Sudeste 15 Sudeste 0 -- -- 87
2017-08-31 00:00:00 20.5 10 Sudeste 18 Sudeste 0 -- -- 87
2017-08-30 23:00:00 20.7 0 Calma 8 Sudeste 0 -- -- 83
2017-08-30 22:00:00 21.3 0 Calma 7 Sudoeste 0 -- -- 79
2017-08-30 21:00:00 22.3 0 Calma 8 Sudoeste 0 -- -- 74
2017-08-30 20:00:00 23.3 3 Sudoeste 11 Noroeste 0 -- -- 66
2017-08-30 19:00:00 23.1 5 Oeste 14 Oeste 0 -- -- 65
2017-08-30 18:00:00 23.1 6 Noroeste 22 Noroeste 0 -- -- 63
2017-08-30 17:00:00 22.6 10 Oeste 19 Oeste 0 -- -- 70
2017-08-30 16:00:00 20.7 0 Calma 9 Oeste 0 -- -- 88
2017-08-30 15:00:00 19.1 4 Nordeste 16 Sudeste 1.5 -- -- 91
2017-08-30 14:00:00 18.8 10 Sudeste 20 Este 0.9 -- -- 91
2017-08-30 13:00:00 18.8 0 Calma 19 Oeste 2 -- -- 92
2017-08-30 12:00:00 18.5 0 Calma 6 Oeste 3.4 -- -- 91
2017-08-30 11:00:00 18.4 0 Calma 12 Este 1.6 -- -- 92
2017-08-30 10:00:00 18.3 6 Oeste 14 Oeste 0.4 -- -- 92
2017-08-30 09:00:00 18.2 0 Calma 10 Este 0.2 -- -- 91
2017-08-30 08:00:00 18.2 6 Sudeste 14 Sudeste 0 -- -- 92
2017-08-30 07:00:00 17.9 6 Sur 11 Sur 0 -- -- 91
2017-08-30 06:00:00 17.9 3 Sudeste 21 Sudeste 0.5 -- -- 92
2017-08-30 05:00:00 18 12 Sudeste 21 Sudeste 0.3 -- -- 91
2017-08-30 04:00:00 18.1 9 Sudeste 18 Sudeste 0 -- -- 90
2017-08-30 03:00:00 17.9 9 Sudeste 17 Sudeste 0.1 -- -- 91
2017-08-30 02:00:00 18.4 11 Sudeste 26 Este 0.7 -- -- 90
2017-08-30 01:00:00 18.6 13 Sudeste 42 Sudeste 0.2 -- -- 84
2017-08-30 00:00:00 18.5 22 Sudeste 39 Sudeste 1.9 -- -- 88
2017-08-29 23:00:00 18.5 18 Sudeste 35 Sudeste 6.1 -- -- 92
2017-08-29 22:00:00 19.9 8 Sur 33 Sudeste 3.6 -- -- 90
2017-08-29 21:00:00 21 9 Sudeste 20 Sudeste 0 -- -- 86
2017-08-29 20:00:00 21.4 4 Sudeste 14 Oeste 0 -- -- 82
2017-08-29 19:00:00 21.2 5 Oeste 10 Oeste 0 -- -- 82
2017-08-29 18:00:00 21.2 2 Noroeste 18 Oeste 0 -- -- 79
2017-08-29 17:00:00 20.2 10 Norte 21 Nordeste 0 -- -- 85
2017-08-29 16:00:00 19.2 5 Nordeste 19 Nordeste 0.5 -- -- 89
2017-08-29 15:00:00 19 2 Nordeste 27 Sudeste 8.2 -- -- 90
2017-08-29 14:00:00 19.4 15 Sudeste 26 Sudeste 6.7 -- -- 90
2017-08-29 13:00:00 20.9 9 Sudeste 23 Sudeste 1.3 -- -- 91
2017-08-29 12:00:00 20.8 7 Sudoeste 14 Oeste 0.7 -- -- 91
2017-08-29 11:00:00 20.6 6 Oeste 8 Noroeste 0.3 -- -- 91
2017-08-29 10:00:00 20.4 2 Oeste 8 Oeste 0 -- -- 92
2017-08-29 09:00:00 19.8 5 Oeste 11 Oeste 0 -- -- 92
2017-08-29 08:00:00 19.7 6 Oeste 14 Sudoeste 0 -- -- 92
2017-08-29 07:00:00 19.9 9 Oeste 14 Oeste 0 -- -- 92
2017-08-29 06:00:00 20.4 0 Calma 9 Oeste 0 -- -- 92
2017-08-29 05:00:00 20.5 5 Oeste 23 Oeste 1.6 -- -- 92
2017-08-29 04:00:00 21.1 7 Sudeste 17 Sudeste 0.6 -- -- 92
2017-08-29 03:00:00 21.5 4 Sudoeste 18 Sudeste 0.7 -- -- 87
2017-08-29 02:00:00 21.6 4 Este 10 Sudeste 0 -- -- 85
2017-08-29 01:00:00 22.8 5 Este 15 Sudeste 0 -- -- 80
2017-08-29 00:00:00 23.7 12 Sudeste 19 Sudeste 0 -- -- 75
2017-08-28 23:00:00 23.5 2 Este 16 Sudeste 0 -- -- 72
2017-08-28 22:00:00 24.3 7 Sudeste 12 Sudeste 0 -- -- 69
2017-08-28 21:00:00 25.8 7 Sudeste 30 Sudeste 0 -- -- 57
2017-08-28 20:00:00 27.6 15 Sudeste 28 Sudeste 0 -- -- 44
2017-08-28 19:00:00 28.1 15 Sudeste 27 Sudeste 0 -- -- 46
2017-08-28 18:00:00 28.2 11 Sudeste 31 Este 0 -- -- 47
2017-08-28 17:00:00 27.7 17 Sudeste 37 Sudeste 0 -- -- 51
2017-08-28 16:00:00 26.9 15 Este 37 Sudeste 0 -- -- 58
2017-08-28 15:00:00 26.4 21 Sudeste 41 Sudeste 0 -- -- 54
2017-08-28 14:00:00 26.8 19 Sudeste 32 Sudeste 0 -- -- 59
2017-08-28 13:00:00 26.9 15 Sudeste 34 Sudeste 0 -- -- 56
2017-08-28 12:00:00 26.7 19 Sudeste 33 Sudeste 0 -- -- 55
2017-08-28 11:00:00 26.3 17 Sudeste 27 Sudeste 0 -- -- 54
2017-08-28 10:00:00 24.3 2 Noroeste 13 Oeste 0 -- -- 77
2017-08-28 09:00:00 23.3 5 Oeste 14 Nordeste 0 -- -- 80
2017-08-28 08:00:00 23.1 5 Nordeste 13 Nordeste 0 -- -- 83
2017-08-28 07:00:00 22.5 3 Nordeste 13 Noroeste 0 -- -- 87
2017-08-28 06:00:00 21.4 10 Oeste 18 Oeste 0 -- -- 82
2017-08-28 05:00:00 22.3 0 Calma -- -- 0 -- -- 90
2017-08-28 04:00:00 22.9 0 Calma 11 Sudeste 0 -- -- 91
2017-08-28 03:00:00 23.1 6 Este 19 Sudeste 0 -- -- 90
2017-08-28 02:00:00 23.5 8 Sudeste 18 Sudeste 0 -- -- 87
2017-08-28 01:00:00 23.8 10 Sudeste 21 Este 0 -- -- 86
2017-08-28 00:00:00 24.3 11 Sudeste 27 Sudeste 0 -- -- 80
2017-08-27 23:00:00 24.8 13 Sudeste 21 Sudeste 0 -- -- 67
2017-08-27 22:00:00 25.5 0 Calma 14 Nordeste 0 -- -- 53
2017-08-27 21:00:00 26.4 6 Oeste 16 Oeste 0.1 -- -- 51
2017-08-27 20:00:00 29.4 5 Noroeste 24 Norte 0 -- -- 37
2017-08-27 19:00:00 30.2 10 Noroeste 30 Norte 0 -- -- 37
2017-08-27 18:00:00 29.9 5 Sudeste 18 Este 0 -- -- 44
2017-08-27 17:00:00 30.3 10 Sudeste 20 Sudeste 0 -- -- 44
2017-08-27 16:00:00 30.3 6 Sudeste 16 Sudeste 0 -- -- 44
2017-08-27 15:00:00 29.6 6 Sudeste 19 Sudeste 0 -- -- 44
2017-08-27 14:00:00 29 10 Sudeste 23 Sudeste 0 -- -- 50
2017-08-27 13:00:00 27.7 10 Sudeste 22 Sudeste 0 -- -- 57
2017-08-27 12:00:00 26 11 Sudeste 21 Este 0 -- -- 59
2017-08-27 11:00:00 24.8 0 Calma 6 Oeste 0 -- -- 73
2017-08-27 10:00:00 23.3 0 Calma 9 Oeste 0 -- -- 83
2017-08-27 09:00:00 21.9 3 Oeste 6 Oeste 0 -- -- 91
2017-08-27 08:00:00 21.1 0 Calma 7 Oeste 0 -- -- 91
2017-08-27 07:00:00 21.3 5 Oeste 10 Oeste 0 -- -- 90
2017-08-27 06:00:00 22 0 Calma 7 Norte 0 -- -- 91
2017-08-27 05:00:00 22.6 4 Sudeste 18 Sudeste 0 -- -- 90
2017-08-27 04:00:00 23.2 13 Sudeste 21 Sudeste 0 -- -- 89
2017-08-27 03:00:00 23.2 14 Sudeste 30 Sudeste 0 -- -- 90
2017-08-27 02:00:00 23.8 15 Sudeste 26 Sudeste 0 -- -- 84
2017-08-27 01:00:00 24.3 11 Sudeste 18 Sudeste 0 -- -- 76
2017-08-27 00:00:00 25 3 Oeste 22 Sudeste 0 -- -- 71
2017-08-26 23:00:00 25.4 12 Sudeste 28 Sudeste 0 -- -- 63
2017-08-26 22:00:00 26.1 9 Sudeste 21 Sudeste 0 -- -- 66
2017-08-26 21:00:00 27.1 11 Sudeste 23 Sudeste 0 -- -- 48
2017-08-26 20:00:00 27.4 10 Este 26 Sudeste 0 -- -- 55
2017-08-26 19:00:00 28.1 19 Sudeste 36 Sudeste 0 -- -- 48
2017-08-26 18:00:00 29.4 24 Sudeste 46 Sudeste 0 -- -- 40
2017-08-26 17:00:00 31.4 25 Sudeste 47 Este 0 -- -- 38
2017-08-26 16:00:00 32.1 24 Sudeste 42 Este 0 -- -- 38
2017-08-26 15:00:00 32 22 Sudeste 39 Este 0 -- -- 38
2017-08-26 14:00:00 31.7 19 Sudeste 35 Sudeste 0 -- -- 39
2017-08-26 13:00:00 30.1 19 Sudeste 30 Sudeste 0 -- -- 40
2017-08-26 12:00:00 29.4 15 Sudeste 28 Sudeste 0 -- -- 45
2017-08-26 11:00:00 27.2 6 Sudeste 12 Este 0 -- -- 57
2017-08-26 10:00:00 24 5 Oeste 12 Oeste 0 -- -- 82
2017-08-26 09:00:00 23.1 8 Oeste 12 Oeste 0 -- -- 84
2017-08-26 08:00:00 22.2 4 Oeste 6 Oeste 0 -- -- 89
2017-08-26 07:00:00 22.1 0 Calma 4 Este 0 -- -- 89
2017-08-26 06:00:00 22.8 0 Calma 13 Este 0 -- -- 88
2017-08-26 05:00:00 23.1 4 Sudeste 16 Sudeste 0 -- -- 83
2017-08-26 04:00:00 23.4 13 Sudeste 22 Sudeste 0 -- -- 83
2017-08-26 03:00:00 23.5 15 Sudeste 28 Sudeste 0 -- -- 87
2017-08-26 02:00:00 23.4 18 Sudeste 31 Sudeste 0 -- -- 88
2017-08-26 01:00:00 25.1 12 Sudeste 20 Sudeste 0 -- -- 68
2017-08-26 00:00:00 24.9 12 Sudeste 20 Sudeste 0 -- -- 74
2017-08-25 23:00:00 25 10 Sudeste 23 Sudeste 0 -- -- 74
2017-08-25 22:00:00 26.1 13 Sudeste 24 Sudeste 0 -- -- 65
2017-08-25 21:00:00 27.5 12 Sudeste 24 Sudeste 0 -- -- 51
2017-08-25 20:00:00 28.6 9 Sudeste 37 Este 0 -- -- 44
2017-08-25 19:00:00 29.1 16 Sudeste 42 Sudeste 0 -- -- 41
2017-08-25 18:00:00 30.2 23 Sudeste 42 Sudeste 0 -- -- 36
2017-08-25 17:00:00 32.5 19 Este 33 Este 0 -- -- 37
2017-08-25 16:00:00 33.1 16 Sudeste 35 Sudeste 0 -- -- 30
2017-08-25 15:00:00 32 19 Sudeste 32 Sudeste 0 -- -- 30
2017-08-25 14:00:00 31.1 21 Sudeste 32 Sudeste 0 -- -- 33
2017-08-25 13:00:00 30.6 15 Sudeste 25 Sudeste 0 -- -- 28
2017-08-25 12:00:00 27.9 2 Noroeste 13 Oeste 0 -- -- 36
2017-08-25 11:00:00 24.1 8 Oeste 13 Oeste 0 -- -- 58
2017-08-25 10:00:00 21.6 6 Oeste 12 Noroeste 0 -- -- 63
2017-08-25 09:00:00 18.8 6 Oeste 13 Oeste 0 -- -- 71
2017-08-25 08:00:00 18.2 8 Oeste 10 Oeste 0 -- -- 73
2017-08-25 07:00:00 18.3 0 Calma -- -- 0 -- -- 77
2017-08-25 06:00:00 18.4 0 Calma 6 Este 0 -- -- 69
2017-08-25 05:00:00 18.7 0 Calma 7 Este 0 -- -- 65
2017-08-25 04:00:00 18.7 2 Este 6 Este 0 -- -- 77
2017-08-25 03:00:00 20 0 Calma 5 Este 0 -- -- 85
2017-08-25 02:00:00 21.2 0 Calma 9 Este 0 -- -- 86
2017-08-25 01:00:00 21.6 0 Calma 5 Este 0 -- -- 80
2017-08-25 00:00:00 22.6 3 Este 16 Sudeste 0 -- -- 73
2017-08-24 23:00:00 24.5 10 Sudeste 22 Sudeste 0 -- -- 65
2017-08-24 22:00:00 25.5 14 Sudeste 28 Sudeste 0 -- -- 47
2017-08-24 21:00:00 26.9 17 Sudeste 32 Este 0 -- -- 36
2017-08-24 20:00:00 28.6 18 Sudeste 35 Sudeste 0 -- -- 33
2017-08-24 19:00:00 29.9 22 Este 39 Sudeste 0 -- -- 34
2017-08-24 18:00:00 30.9 24 Sudeste 39 Sudeste 0 -- -- 34
2017-08-24 17:00:00 31.7 22 Sudeste 40 Sudeste 0 -- -- 33
2017-08-24 16:00:00 32.2 21 Sudeste 42 Sudeste 0 -- -- 32
2017-08-24 15:00:00 32.3 21 Sudeste 37 Sudeste 0 -- -- 29
2017-08-24 14:00:00 30.7 19 Sudeste 38 Este 0 -- -- 33
2017-08-24 13:00:00 29.5 19 Sudeste 33 Sudeste 0 -- -- 33
2017-08-24 12:00:00 28.6 19 Sudeste 28 Sudeste 0 -- -- 35
2017-08-24 11:00:00 24.8 6 Sudeste 12 Sudeste 0 -- -- 51
2017-08-24 10:00:00 20.9 2 Oeste 12 Noroeste 0 -- -- 85
2017-08-24 09:00:00 19.7 5 Oeste 12 Oeste 0 -- -- 87
2017-08-24 08:00:00 18.5 0 Calma 5 Oeste 0 -- -- 87
2017-08-24 07:00:00 16.8 0 Calma 9 Oeste 0 -- -- 75
2017-08-24 06:00:00 19.5 5 Oeste 8 Oeste 0 -- -- 90
2017-08-24 05:00:00 19.1 0 Calma 6 Sudeste 0 -- -- 83
2017-08-24 04:00:00 20.2 0 Calma 8 Sudeste 0 -- -- 89
2017-08-24 03:00:00 19.6 3 Este 9 Este 0 -- -- 91
2017-08-24 02:00:00 20.7 4 Este 10 Sudeste 0 -- -- 91
2017-08-24 01:00:00 21.5 3 Este 13 Sudeste 0 -- -- 88
2017-08-24 00:00:00 22.5 9 Sudeste 19 Sudeste 0 -- -- 86
2017-08-23 23:00:00 23.2 12 Sudeste 27 Sudeste 0 -- -- 81
2017-08-23 22:00:00 24.4 18 Sudeste 33 Sudeste 0 -- -- 66
2017-08-23 21:00:00 26.4 23 Sudeste 40 Sudeste 0 -- -- 39
2017-08-23 20:00:00 28.9 18 Sudeste 37 Este 0 -- -- 30
2017-08-23 19:00:00 30.6 22 Sudeste 41 Sudeste 0 -- -- 31
2017-08-23 18:00:00 32 23 Sudeste 41 Sudeste 0 -- -- 30
2017-08-23 17:00:00 32.8 21 Sudeste 40 Sudeste 0 -- -- 33
2017-08-23 16:00:00 33 21 Sudeste 37 Sudeste 0 -- -- 33
2017-08-23 15:00:00 32.4 19 Sudeste 34 Este 0 -- -- 28
2017-08-23 14:00:00 31.4 19 Sudeste 33 Sudeste 0 -- -- 30
2017-08-23 13:00:00 29.8 19 Sudeste 32 Este 0 -- -- 31
2017-08-23 12:00:00 28.8 15 Sudeste 25 Sudeste 0 -- -- 34
2017-08-23 11:00:00 25.6 9 Sudeste 16 Sudeste 0 -- -- 50
2017-08-23 10:00:00 22 7 Oeste 11 Oeste 0 -- -- 61
2017-08-23 09:00:00 19.7 4 Noroeste 9 Oeste 0 -- -- 73
2017-08-23 08:00:00 17.4 0 Calma 4 Oeste 0 -- -- 82
2017-08-23 07:00:00 17.6 0 Calma 4 Este 0 -- -- 81
2017-08-23 06:00:00 18.4 0 Calma 4 Oeste 0 -- -- 77
2017-08-23 05:00:00 19.4 0 Calma 8 Norte 0 -- -- 73
2017-08-23 04:00:00 19.4 3 Este 8 Este 0 -- -- 75
2017-08-23 03:00:00 19.6 2 Sudeste 6 Sudeste 0 -- -- 79
2017-08-23 02:00:00 21.1 0 Calma 9 Sudeste 0 -- -- 74
2017-08-23 01:00:00 22.6 8 Sudeste 19 Sudeste 0 -- -- 69
2017-08-23 00:00:00 23.1 8 Sudeste 26 Sudeste 0 -- -- 67
2017-08-22 23:00:00 24 17 Sudeste 26 Sudeste 0 -- -- 62
2017-08-22 22:00:00 25.1 14 Sudeste 27 Sudeste 0 -- -- 54
2017-08-22 21:00:00 26.7 16 Sudeste 35 Sudeste 0 -- -- 45
2017-08-22 20:00:00 28.8 23 Sudeste 36 Este 0 -- -- 39
2017-08-22 19:00:00 31 22 Sudeste 40 Este 0 -- -- 35
2017-08-22 18:00:00 32 22 Sudeste 39 Sudeste 0 -- -- 34
2017-08-22 17:00:00 33.3 19 Sudeste 33 Sudeste 0 -- -- 30
2017-08-22 16:00:00 32.8 19 Sudeste 36 Sudeste 0 -- -- 28
2017-08-22 15:00:00 32.7 15 Sudeste 32 Este 0 -- -- 28
2017-08-22 14:00:00 31.1 16 Este 33 Este 0 -- -- 29
2017-08-22 13:00:00 30.1 13 Sudeste 26 Este 0 -- -- 28
2017-08-22 12:00:00 28.7 8 Este 20 Este 0 -- -- 34
2017-08-22 11:00:00 24.7 3 Noroeste 9 Norte 0 -- -- 54
2017-08-22 10:00:00 21.7 7 Oeste 11 Oeste 0 -- -- 72
2017-08-22 09:00:00 19.7 4 Oeste 9 Oeste 0 -- -- 82
2017-08-22 08:00:00 17.8 0 Calma -- -- 0 -- -- 88
2017-08-22 07:00:00 17.6 0 Calma 4 Oeste 0 -- -- 86
2017-08-22 06:00:00 18.4 0 Calma 5 Oeste 0 -- -- 84
2017-08-22 05:00:00 19.5 0 Calma 9 Nordeste 0 -- -- 81
2017-08-22 04:00:00 19.6 0 Calma 5 Este 0 -- -- 83
2017-08-22 03:00:00 20 0 Calma 4 Este 0 -- -- 79
2017-08-22 02:00:00 21 0 Calma -- -- 0 -- -- 76
2017-08-22 01:00:00 22.2 2 Sudeste 18 Sudeste 0 -- -- 70
2017-08-22 00:00:00 22.6 11 Sudeste 19 Sudeste 0 -- -- 68